Main page
METAR-TAF:

METAR-TAF

Airports :

Sheremetyevo International Airport

Moscow-Sheremetyevo, Russia

latitude: 55-58N, longitude: 037-25E, elevation: 190 m

Current weather observation

The report was made 22 minutes ago, at 21:00 UTC
Wind 12 kt from the South
Temperature -3°C
Humidity 39%
Pressure 1031 hPa
Visibility 10 km or more
no clouds below 1500 m and no cumulonimbus

METAR: UUEE 132100Z 17006MPS CAVOK M03/M15 Q1031 R24L/150051 R24C/150045 NOSIG

Time: 00:22 (21:22 UTC)

Forecast

The report was made 1 hour and 22 minutes ago, at 20:00 UTC
Forecast valid from 13 at 21 UTC to 14 at 21 UTC
Wind 12 kt from the South with gusts up to 23 kt
Visibility 10 km or more
no clouds below 1500 m and no cumulonimbus

TAF: UUEE 132000Z 1321/1421 18006G12MPS CAVOK TXM00/1412Z TNM05/1403Z

Weather observations and forecasts of more than 4000 airports (METAR and TAF reports).

The available stations are represented by yellow and red dots on the map.

Hover mouse over dot to see the name of the station.

Then click to see weather observations and forecasts.

To change the map : click on the green buttons with a black cross to zoom in, on the green button with a dash to zoom out, or on the green arrows for adjacent maps.


METAR-TAF: